Marola — IBFL — position and weather

sailwx.info

Track history (hours):
 
Tides and Currents Weather Stations Pressure Air Temp Water Temp Dewpoint Dewpoint Depression Visibility Wind Speed Wind Dir Waves Ship Positions

Marola

Last reported at 2017-Nov-09 22:24 UTC. Time now 2017-Nov-24 05:51 UTC.
Position S 24°36' W 045°27'.
Warning: this ship's position is 14 days out of date.

Length 181 m; draft 7.5 m.

Type: Ship. MMSI: 247094900.

Date/timePositionNaut miles runAvg speedWind from/ knotsBaromVisibWave heightAir tempDewpointWater temp
2017-Nov-09 22:24S 24°36' W 045°27'914.4
2017-Nov-09 21:46S 24°36' W 045°37'414.5
2017-Nov-09 21:30S 24°36' W 045°41'1314.8
2017-Nov-09 20:39S 24°36' W 045°55'215.0
2017-Nov-09 20:30S 24°36' W 045°58'1513.4
2017-Nov-09 19:21S 24°27' W 046°11'514.9
2017-Nov-09 19:00S 24°23' W 046°14'715.0
2017-Nov-09 18:30S 24°17' W 046°19'714.9
2017-Nov-09 18:00S 24°10' W 046°24'815.0
2017-Nov-09 17:30S 24°03' W 046°22'5 9.3
2017-Nov-09 17:00S 23°60' W 046°18'3 6.5
2017-Nov-09 16:30S 23°56' W 046°19'1 0.0
2017-Nov-08 07:29S 23°57' W 046°19'3 5.5
2017-Nov-08 07:00S 23°60' W 046°19'5 9.1
2017-Nov-08 06:30S 24°03' W 046°22'4 7.1
2017-Nov-08 06:00S 24°07' W 046°23'3 5.9
2017-Nov-08 05:31S 24°09' W 046°24'510.4
2017-Nov-08 05:00S 24°13' W 046°19'4 6.6
2017-Nov-08 04:26S 24°14' W 046°15'0 0.2
2017-Nov-08 03:59S 24°14' W 046°15'0 0.0
2017-Nov-08 03:14S 24°14' W 046°15'0 0.0
2017-Nov-08 02:56S 24°14' W 046°15'0 0.0
2017-Nov-08 02:29S 24°14' W 046°15'0 0.0
2017-Nov-08 01:50S 24°14' W 046°15'0 0.0
2017-Nov-08 01:29S 24°14' W 046°15'0 0.0
2017-Nov-08 00:59S 24°14' W 046°15'0 0.0
2017-Nov-08 00:26S 24°14' W 046°15'0 0.0
2017-Nov-07 23:56S 24°14' W 046°15'0 0.0
2017-Nov-07 23:26S 24°14' W 046°15'0 0.0
2017-Nov-07 22:56S 24°14' W 046°15'0 0.0
2017-Nov-07 22:23S 24°14' W 046°15'0 0.0
2017-Nov-07 21:59S 24°14' W 046°15'0 0.0
2017-Nov-07 21:26S 24°14' W 046°15'0 0.0
2017-Nov-07 20:38S 24°14' W 046°15'0 0.0
2017-Nov-07 20:29S 24°14' W 046°15'0 0.0
2017-Nov-07 19:59S 24°14' W 046°15'0 0.0
2017-Nov-07 19:26S 24°14' W 046°15'0 0.0
2017-Nov-07 18:53S 24°14' W 046°15'0 0.0
2017-Nov-07 18:29S 24°14' W 046°15'0 0.0
2017-Nov-07 17:59S 24°14' W 046°15'0 0.0
2017-Nov-07 17:26S 24°14' W 046°15'0 0.0
2017-Nov-07 16:56S 24°14' W 046°15'0 0.0
2017-Nov-07 16:26S 24°14' W 046°15'0 0.0
2017-Nov-07 15:56S 24°14' W 046°15'0 0.0
2017-Nov-07 15:08S 24°14' W 046°15'0 0.0
2017-Nov-07 14:47S 24°14' W 046°15'0 0.1
2017-Nov-07 14:29S 24°14' W 046°15'0 0.0
2017-Nov-07 13:56S 24°14' W 046°15'0 0.0
2017-Nov-07 13:26S 24°14' W 046°15'0 0.0
2017-Nov-07 12:56S 24°14' W 046°15'0 0.0
2017-Nov-07 12:26S 24°14' W 046°15'0 0.0
2017-Nov-07 11:56S 24°14' W 046°15'0 0.0
2017-Nov-07 11:23S 24°14' W 046°15'0 0.0
2017-Nov-07 10:56S 24°14' W 046°15'0 0.0
2017-Nov-07 10:26S 24°14' W 046°15'0 0.0
2017-Nov-07 09:59S 24°14' W 046°15'0 0.0
2017-Nov-07 09:29S 24°14' W 046°15'0 0.0
2017-Nov-07 08:59S 24°14' W 046°15'0 0.0
2017-Nov-07 08:29S 24°14' W 046°15'0 0.0
2017-Nov-07 07:53S 24°14' W 046°15'0 0.0
2017-Nov-07 07:29S 24°14' W 046°15'0 0.0
2017-Nov-07 06:50S 24°14' W 046°15'0 0.1
2017-Nov-07 06:29S 24°14' W 046°15'0 0.0
2017-Nov-07 05:56S 24°14' W 046°15'0 0.0
2017-Nov-07 05:20S 24°14' W 046°15'0 0.0
2017-Nov-07 04:56S 24°14' W 046°15'0 0.0
2017-Nov-07 04:26S 24°14' W 046°15'0 0.0
2017-Nov-07 03:59S 24°14' W 046°15'0 0.0
2017-Nov-07 03:11S 24°14' W 046°15'0 0.0
2017-Nov-07 02:56S 24°14' W 046°15'0 0.0
2017-Nov-07 02:26S 24°14' W 046°15'0 0.0
2017-Nov-07 01:59S 24°14' W 046°15'0 0.0
2017-Nov-07 01:26S 24°14' W 046°15'0 0.0
2017-Nov-07 00:56S 24°14' W 046°15'0 0.0
2017-Nov-07 00:23S 24°14' W 046°15'0 0.0
2017-Nov-06 23:59S 24°14' W 046°15'0 0.0
2017-Nov-06 23:20S 24°14' W 046°15'0 0.0
2017-Nov-06 22:59S 24°14' W 046°15'0 0.0
2017-Nov-06 22:20S 24°14' W 046°15'0 0.0
2017-Nov-06 21:56S 24°14' W 046°15'0 0.0
2017-Nov-06 21:26S 24°14' W 046°15'0 0.0
2017-Nov-06 20:56S 24°14' W 046°15'0 0.0
2017-Nov-06 20:11S 24°14' W 046°15'  
Track history (hours):
 
Tides and Currents Weather Stations Pressure Air Temp Water Temp Dewpoint Dewpoint Depression Visibility Wind Speed Wind Dir Waves Ship Positions

Marola

Last reported at 2017-Nov-09 22:24 UTC. Time now 2017-Nov-24 05:51 UTC.
Position S 24°36' W 045°27'.
Warning: this ship's position is 14 days out of date.

Length 181 m; draft 7.5 m.

Type: Ship. MMSI: 247094900.

Date/timePositionNaut miles runAvg speedWind from/ knotsBaromVisibWave heightAir tempDewpointWater temp
2017-Nov-09 22:24S 24°36' W 045°27'914.4
2017-Nov-09 21:46S 24°36' W 045°37'414.5
2017-Nov-09 21:30S 24°36' W 045°41'1314.8
2017-Nov-09 20:39S 24°36' W 045°55'215.0
2017-Nov-09 20:30S 24°36' W 045°58'1513.4
2017-Nov-09 19:21S 24°27' W 046°11'514.9
2017-Nov-09 19:00S 24°23' W 046°14'715.0
2017-Nov-09 18:30S 24°17' W 046°19'714.9
2017-Nov-09 18:00S 24°10' W 046°24'815.0
2017-Nov-09 17:30S 24°03' W 046°22'5 9.3
2017-Nov-09 17:00S 23°60' W 046°18'3 6.5
2017-Nov-09 16:30S 23°56' W 046°19'1 0.0
2017-Nov-08 07:29S 23°57' W 046°19'3 5.5
2017-Nov-08 07:00S 23°60' W 046°19'5 9.1
2017-Nov-08 06:30S 24°03' W 046°22'4 7.1
2017-Nov-08 06:00S 24°07' W 046°23'3 5.9
2017-Nov-08 05:31S 24°09' W 046°24'510.4
2017-Nov-08 05:00S 24°13' W 046°19'4 6.6
2017-Nov-08 04:26S 24°14' W 046°15'0 0.2
2017-Nov-08 03:59S 24°14' W 046°15'0 0.0
2017-Nov-08 03:14S 24°14' W 046°15'0 0.0
2017-Nov-08 02:56S 24°14' W 046°15'0 0.0
2017-Nov-08 02:29S 24°14' W 046°15'0 0.0
2017-Nov-08 01:50S 24°14' W 046°15'0 0.0
2017-Nov-08 01:29S 24°14' W 046°15'0 0.0
2017-Nov-08 00:59S 24°14' W 046°15'0 0.0
2017-Nov-08 00:26S 24°14' W 046°15'0 0.0
2017-Nov-07 23:56S 24°14' W 046°15'0 0.0
2017-Nov-07 23:26S 24°14' W 046°15'0 0.0
2017-Nov-07 22:56S 24°14' W 046°15'0 0.0
2017-Nov-07 22:23S 24°14' W 046°15'0 0.0
2017-Nov-07 21:59S 24°14' W 046°15'0 0.0
2017-Nov-07 21:26S 24°14' W 046°15'0 0.0
2017-Nov-07 20:38S 24°14' W 046°15'0 0.0
2017-Nov-07 20:29S 24°14' W 046°15'0 0.0
2017-Nov-07 19:59S 24°14' W 046°15'0 0.0
2017-Nov-07 19:26S 24°14' W 046°15'0 0.0
2017-Nov-07 18:53S 24°14' W 046°15'0 0.0
2017-Nov-07 18:29S 24°14' W 046°15'0 0.0
2017-Nov-07 17:59S 24°14' W 046°15'0 0.0
2017-Nov-07 17:26S 24°14' W 046°15'0 0.0
2017-Nov-07 16:56S 24°14' W 046°15'0 0.0
2017-Nov-07 16:26S 24°14' W 046°15'0 0.0
2017-Nov-07 15:56S 24°14' W 046°15'0 0.0
2017-Nov-07 15:08S 24°14' W 046°15'0 0.0
2017-Nov-07 14:47S 24°14' W 046°15'0 0.1
2017-Nov-07 14:29S 24°14' W 046°15'0 0.0
2017-Nov-07 13:56S 24°14' W 046°15'0 0.0
2017-Nov-07 13:26S 24°14' W 046°15'0 0.0
2017-Nov-07 12:56S 24°14' W 046°15'0 0.0
2017-Nov-07 12:26S 24°14' W 046°15'0 0.0
2017-Nov-07 11:56S 24°14' W 046°15'0 0.0
2017-Nov-07 11:23S 24°14' W 046°15'0 0.0
2017-Nov-07 10:56S 24°14' W 046°15'0 0.0
2017-Nov-07 10:26S 24°14' W 046°15'0 0.0
2017-Nov-07 09:59S 24°14' W 046°15'0 0.0
2017-Nov-07 09:29S 24°14' W 046°15'0 0.0
2017-Nov-07 08:59S 24°14' W 046°15'0 0.0
2017-Nov-07 08:29S 24°14' W 046°15'0 0.0
2017-Nov-07 07:53S 24°14' W 046°15'0 0.0
2017-Nov-07 07:29S 24°14' W 046°15'0 0.0
2017-Nov-07 06:50S 24°14' W 046°15'0 0.1
2017-Nov-07 06:29S 24°14' W 046°15'0 0.0
2017-Nov-07 05:56S 24°14' W 046°15'0 0.0
2017-Nov-07 05:20S 24°14' W 046°15'0 0.0
2017-Nov-07 04:56S 24°14' W 046°15'0 0.0
2017-Nov-07 04:26S 24°14' W 046°15'0 0.0
2017-Nov-07 03:59S 24°14' W 046°15'0 0.0
2017-Nov-07 03:11S 24°14' W 046°15'0 0.0
2017-Nov-07 02:56S 24°14' W 046°15'0 0.0
2017-Nov-07 02:26S 24°14' W 046°15'0 0.0
2017-Nov-07 01:59S 24°14' W 046°15'0 0.0
2017-Nov-07 01:26S 24°14' W 046°15'0 0.0
2017-Nov-07 00:56S 24°14' W 046°15'0 0.0
2017-Nov-07 00:23S 24°14' W 046°15'0 0.0
2017-Nov-06 23:59S 24°14' W 046°15'0 0.0
2017-Nov-06 23:20S 24°14' W 046°15'0 0.0
2017-Nov-06 22:59S 24°14' W 046°15'0 0.0
2017-Nov-06 22:20S 24°14' W 046°15'0 0.0
2017-Nov-06 21:56S 24°14' W 046°15'0 0.0
2017-Nov-06 21:26S 24°14' W 046°15'0 0.0
2017-Nov-06 20:56S 24°14' W 046°15'0 0.0
2017-Nov-06 20:11S 24°14' W 046°15'  

Dump ship's entire track history